sensor_id;sensor_type;location;lat;lon;timestamp;P1;durP1;ratioP1;P2;durP2;ratioP2
53253;SDS011;39148;53.332;6.922;2022-12-29T00:02:06;3.20;;;1.65;;
53253;SDS011;39148;53.332;6.922;2022-12-29T00:04:32;3.83;;;1.90;;
53253;SDS011;39148;53.332;6.922;2022-12-29T00:06:58;2.90;;;1.65;;
53253;SDS011;39148;53.332;6.922;2022-12-29T00:09:24;5.15;;;1.75;;
53253;SDS011;39148;53.332;6.922;2022-12-29T00:11:51;3.15;;;1.90;;
53253;SDS011;39148;53.332;6.922;2022-12-29T00:14:16;3.13;;;1.50;;
53253;SDS011;39148;53.332;6.922;2022-12-29T00:17:01;3.55;;;1.65;;
53253;SDS011;39148;53.332;6.922;2022-12-29T00:19:27;3.35;;;2.05;;
53253;SDS011;39148;53.332;6.922;2022-12-29T00:22:12;2.88;;;1.50;;
53253;SDS011;39148;53.332;6.922;2022-12-29T00:24:58;2.50;;;1.50;;
53253;SDS011;39148;53.332;6.922;2022-12-29T00:27:27;3.03;;;1.50;;
53253;SDS011;39148;53.332;6.922;2022-12-29T00:30:13;2.75;;;1.50;;
53253;SDS011;39148;53.332;6.922;2022-12-29T00:33:00;3.97;;;1.90;;
53253;SDS011;39148;53.332;6.922;2022-12-29T00:35:47;3.28;;;1.50;;
53253;SDS011;39148;53.332;6.922;2022-12-29T00:38:18;2.97;;;1.70;;
53253;SDS011;39148;53.332;6.922;2022-12-29T00:41:04;2.92;;;1.60;;
53253;SDS011;39148;53.332;6.922;2022-12-29T00:43:48;2.97;;;1.40;;
53253;SDS011;39148;53.332;6.922;2022-12-29T00:46:38;2.92;;;1.50;;
53253;SDS011;39148;53.332;6.922;2022-12-29T00:49:06;2.70;;;1.33;;
53253;SDS011;39148;53.332;6.922;2022-12-29T00:51:52;2.72;;;1.42;;
53253;SDS011;39148;53.332;6.922;2022-12-29T00:54:18;2.58;;;1.40;;
53253;SDS011;39148;53.332;6.922;2022-12-29T00:56:48;2.97;;;1.60;;
53253;SDS011;39148;53.332;6.922;2022-12-29T00:59:15;2.83;;;1.43;;
53253;SDS011;39148;53.332;6.922;2022-12-29T01:01:40;3.00;;;1.67;;
53253;SDS011;39148;53.332;6.922;2022-12-29T01:04:07;2.45;;;1.50;;
53253;SDS011;39148;53.332;6.922;2022-12-29T01:06:35;2.90;;;1.50;;
53253;SDS011;39148;53.332;6.922;2022-12-29T01:09:02;2.90;;;1.55;;
53253;SDS011;39148;53.332;6.922;2022-12-29T01:11:47;2.50;;;1.42;;
53253;SDS011;39148;53.332;6.922;2022-12-29T01:14:13;3.17;;;1.30;;
53253;SDS011;39148;53.332;6.922;2022-12-29T01:16:39;3.45;;;1.63;;
53253;SDS011;39148;53.332;6.922;2022-12-29T01:19:05;3.58;;;1.67;;
53253;SDS011;39148;53.332;6.922;2022-12-29T01:21:31;3.05;;;1.40;;
53253;SDS011;39148;53.332;6.922;2022-12-29T01:23:57;2.60;;;1.33;;
53253;SDS011;39148;53.332;6.922;2022-12-29T01:26:23;3.85;;;1.30;;
53253;SDS011;39148;53.332;6.922;2022-12-29T01:28:49;4.68;;;1.73;;
53253;SDS011;39148;53.332;6.922;2022-12-29T01:31:15;3.30;;;1.55;;
53253;SDS011;39148;53.332;6.922;2022-12-29T01:33:41;3.58;;;1.90;;
53253;SDS011;39148;53.332;6.922;2022-12-29T01:36:09;4.03;;;1.60;;
53253;SDS011;39148;53.332;6.922;2022-12-29T01:38:36;2.92;;;1.50;;
53253;SDS011;39148;53.332;6.922;2022-12-29T01:41:03;2.97;;;1.55;;
53253;SDS011;39148;53.332;6.922;2022-12-29T01:43:43;3.45;;;1.75;;
53253;SDS011;39148;53.332;6.922;2022-12-29T01:48:49;3.08;;;1.50;;
53253;SDS011;39148;53.332;6.922;2022-12-29T01:51:17;2.63;;;1.50;;
53253;SDS011;39148;53.332;6.922;2022-12-29T01:53:44;3.17;;;1.55;;
53253;SDS011;39148;53.332;6.922;2022-12-29T01:56:11;3.25;;;1.60;;
53253;SDS011;39148;53.332;6.922;2022-12-29T01:58:39;3.05;;;1.50;;
53253;SDS011;39148;53.332;6.922;2022-12-29T02:01:09;3.13;;;1.70;;
53253;SDS011;39148;53.332;6.922;2022-12-29T02:03:36;3.78;;;2.00;;
53253;SDS011;39148;53.332;6.922;2022-12-29T02:06:04;2.50;;;1.48;;
53253;SDS011;39148;53.332;6.922;2022-12-29T02:08:52;4.30;;;1.60;;
53253;SDS011;39148;53.332;6.922;2022-12-29T02:11:20;3.08;;;1.60;;
53253;SDS011;39148;53.332;6.922;2022-12-29T02:13:48;2.90;;;1.95;;
53253;SDS011;39148;53.332;6.922;2022-12-29T02:19:12;3.67;;;1.45;;
53253;SDS011;39148;53.332;6.922;2022-12-29T02:32:43;3.15;;;1.77;;
53253;SDS011;39148;53.332;6.922;2022-12-29T02:35:19;3.35;;;1.80;;
53253;SDS011;39148;53.332;6.922;2022-12-29T02:38:25;3.35;;;1.60;;
53253;SDS011;39148;53.332;6.922;2022-12-29T02:40:59;3.65;;;1.83;;
53253;SDS011;39148;53.332;6.922;2022-12-29T02:44:04;3.08;;;1.73;;
53253;SDS011;39148;53.332;6.922;2022-12-29T02:52:30;3.28;;;1.52;;
53253;SDS011;39148;53.332;6.922;2022-12-29T02:54:59;4.43;;;1.70;;
53253;SDS011;39148;53.332;6.922;2022-12-29T03:06:32;3.17;;;1.38;;
53253;SDS011;39148;53.332;6.922;2022-12-29T03:11:22;3.85;;;1.40;;
53253;SDS011;39148;53.332;6.922;2022-12-29T03:17:07;4.32;;;1.70;;
53253;SDS011;39148;53.332;6.922;2022-12-29T03:19:37;2.75;;;1.40;;
53253;SDS011;39148;53.332;6.922;2022-12-29T03:22:07;5.15;;;1.50;;
53253;SDS011;39148;53.332;6.922;2022-12-29T03:25:01;3.17;;;1.30;;
53253;SDS011;39148;53.332;6.922;2022-12-29T03:27:35;2.88;;;1.30;;
53253;SDS011;39148;53.332;6.922;2022-12-29T03:30:06;3.03;;;1.20;;
53253;SDS011;39148;53.332;6.922;2022-12-29T03:32:47;3.25;;;1.25;;
53253;SDS011;39148;53.332;6.922;2022-12-29T03:35:18;3.65;;;1.40;;
53253;SDS011;39148;53.332;6.922;2022-12-29T03:37:52;3.70;;;1.40;;
53253;SDS011;39148;53.332;6.922;2022-12-29T03:40:24;4.25;;;1.17;;
53253;SDS011;39148;53.332;6.922;2022-12-29T03:42:52;2.45;;;1.00;;
53253;SDS011;39148;53.332;6.922;2022-12-29T03:45:19;4.60;;;1.23;;
53253;SDS011;39148;53.332;6.922;2022-12-29T03:47:45;2.15;;;1.00;;
53253;SDS011;39148;53.332;6.922;2022-12-29T03:50:11;2.80;;;1.20;;
53253;SDS011;39148;53.332;6.922;2022-12-29T03:52:37;1.98;;;0.95;;
53253;SDS011;39148;53.332;6.922;2022-12-29T03:55:03;5.00;;;1.13;;
53253;SDS011;39148;53.332;6.922;2022-12-29T03:57:29;3.65;;;0.90;;
53253;SDS011;39148;53.332;6.922;2022-12-29T03:59:55;2.05;;;1.00;;
53253;SDS011;39148;53.332;6.922;2022-12-29T04:02:20;4.53;;;0.93;;
53253;SDS011;39148;53.332;6.922;2022-12-29T04:04:46;3.05;;;1.05;;
53253;SDS011;39148;53.332;6.922;2022-12-29T04:07:12;1.83;;;0.93;;
53253;SDS011;39148;53.332;6.922;2022-12-29T04:09:37;3.95;;;1.08;;
53253;SDS011;39148;53.332;6.922;2022-12-29T04:12:03;1.40;;;0.80;;
53253;SDS011;39148;53.332;6.922;2022-12-29T04:14:29;2.08;;;0.73;;
53253;SDS011;39148;53.332;6.922;2022-12-29T04:16:55;2.40;;;0.82;;
53253;SDS011;39148;53.332;6.922;2022-12-29T04:19:21;1.98;;;0.70;;
53253;SDS011;39148;53.332;6.922;2022-12-29T04:21:46;2.25;;;0.73;;
53253;SDS011;39148;53.332;6.922;2022-12-29T04:24:12;3.53;;;0.80;;
53253;SDS011;39148;53.332;6.922;2022-12-29T04:26:38;2.00;;;0.77;;
53253;SDS011;39148;53.332;6.922;2022-12-29T04:29:04;3.50;;;0.82;;
53253;SDS011;39148;53.332;6.922;2022-12-29T04:31:29;1.80;;;0.63;;
53253;SDS011;39148;53.332;6.922;2022-12-29T04:33:55;2.60;;;0.70;;
53253;SDS011;39148;53.332;6.922;2022-12-29T04:36:22;3.55;;;0.98;;
53253;SDS011;39148;53.332;6.922;2022-12-29T04:38:48;1.25;;;0.65;;
53253;SDS011;39148;53.332;6.922;2022-12-29T04:41:14;2.55;;;0.68;;
53253;SDS011;39148;53.332;6.922;2022-12-29T04:43:40;2.05;;;0.60;;
53253;SDS011;39148;53.332;6.922;2022-12-29T04:46:06;3.78;;;0.70;;
53253;SDS011;39148;53.332;6.922;2022-12-29T04:48:32;2.22;;;0.60;;
53253;SDS011;39148;53.332;6.922;2022-12-29T04:50:58;3.58;;;0.68;;
53253;SDS011;39148;53.332;6.922;2022-12-29T04:53:23;2.45;;;0.63;;
53253;SDS011;39148;53.332;6.922;2022-12-29T04:55:50;2.03;;;0.73;;
53253;SDS011;39148;53.332;6.922;2022-12-29T04:58:17;2.08;;;0.60;;
53253;SDS011;39148;53.332;6.922;2022-12-29T05:00:44;2.35;;;0.55;;
53253;SDS011;39148;53.332;6.922;2022-12-29T05:03:10;3.53;;;0.70;;
53253;SDS011;39148;53.332;6.922;2022-12-29T05:05:35;3.50;;;0.80;;
53253;SDS011;39148;53.332;6.922;2022-12-29T05:08:01;2.72;;;0.70;;
53253;SDS011;39148;53.332;6.922;2022-12-29T05:10:27;4.85;;;1.00;;
53253;SDS011;39148;53.332;6.922;2022-12-29T05:12:53;5.13;;;1.38;;
53253;SDS011;39148;53.332;6.922;2022-12-29T05:15:19;3.63;;;0.70;;
53253;SDS011;39148;53.332;6.922;2022-12-29T05:17:45;4.65;;;0.70;;
53253;SDS011;39148;53.332;6.922;2022-12-29T05:20:11;4.63;;;0.80;;
53253;SDS011;39148;53.332;6.922;2022-12-29T05:22:36;3.92;;;0.60;;
53253;SDS011;39148;53.332;6.922;2022-12-29T05:25:02;5.40;;;0.77;;
53253;SDS011;39148;53.332;6.922;2022-12-29T05:27:28;5.97;;;0.70;;
53253;SDS011;39148;53.332;6.922;2022-12-29T05:29:54;4.00;;;0.60;;
53253;SDS011;39148;53.332;6.922;2022-12-29T05:32:20;3.72;;;0.90;;
53253;SDS011;39148;53.332;6.922;2022-12-29T05:34:46;4.70;;;0.80;;
53253;SDS011;39148;53.332;6.922;2022-12-29T05:37:12;4.85;;;0.80;;
53253;SDS011;39148;53.332;6.922;2022-12-29T05:39:37;8.43;;;1.30;;
53253;SDS011;39148;53.332;6.922;2022-12-29T05:42:03;5.22;;;0.80;;
53253;SDS011;39148;53.332;6.922;2022-12-29T05:44:29;5.63;;;0.80;;
53253;SDS011;39148;53.332;6.922;2022-12-29T05:46:55;4.60;;;0.82;;
53253;SDS011;39148;53.332;6.922;2022-12-29T05:49:20;5.32;;;0.80;;
53253;SDS011;39148;53.332;6.922;2022-12-29T05:51:46;6.25;;;0.95;;
53253;SDS011;39148;53.332;6.922;2022-12-29T05:54:12;4.82;;;0.77;;
53253;SDS011;39148;53.332;6.922;2022-12-29T05:56:38;9.25;;;1.00;;
53253;SDS011;39148;53.332;6.922;2022-12-29T05:59:03;4.70;;;1.00;;
53253;SDS011;39148;53.332;6.922;2022-12-29T06:01:29;8.85;;;1.02;;
53253;SDS011;39148;53.332;6.922;2022-12-29T06:03:55;4.88;;;0.80;;
53253;SDS011;39148;53.332;6.922;2022-12-29T06:06:20;3.70;;;0.90;;
53253;SDS011;39148;53.332;6.922;2022-12-29T06:08:47;5.75;;;0.82;;
53253;SDS011;39148;53.332;6.922;2022-12-29T06:11:12;8.32;;;1.15;;
53253;SDS011;39148;53.332;6.922;2022-12-29T06:13:38;7.25;;;1.15;;
53253;SDS011;39148;53.332;6.922;2022-12-29T06:16:04;7.03;;;0.90;;
53253;SDS011;39148;53.332;6.922;2022-12-29T06:18:30;4.28;;;1.05;;
53253;SDS011;39148;53.332;6.922;2022-12-29T06:21:00;6.70;;;0.98;;
53253;SDS011;39148;53.332;6.922;2022-12-29T06:23:26;6.43;;;0.98;;
53253;SDS011;39148;53.332;6.922;2022-12-29T06:25:52;7.03;;;1.00;;
53253;SDS011;39148;53.332;6.922;2022-12-29T06:28:19;7.70;;;1.00;;
53253;SDS011;39148;53.332;6.922;2022-12-29T06:30:45;6.20;;;0.73;;
53253;SDS011;39148;53.332;6.922;2022-12-29T06:33:11;7.00;;;0.82;;
53253;SDS011;39148;53.332;6.922;2022-12-29T06:35:37;4.32;;;0.80;;
53253;SDS011;39148;53.332;6.922;2022-12-29T06:38:03;8.25;;;1.23;;
53253;SDS011;39148;53.332;6.922;2022-12-29T06:40:29;6.07;;;0.80;;
53253;SDS011;39148;53.332;6.922;2022-12-29T06:42:55;5.35;;;0.98;;
53253;SDS011;39148;53.332;6.922;2022-12-29T06:45:21;7.65;;;0.90;;
53253;SDS011;39148;53.332;6.922;2022-12-29T06:47:46;8.05;;;1.38;;
53253;SDS011;39148;53.332;6.922;2022-12-29T06:50:12;8.20;;;1.40;;
53253;SDS011;39148;53.332;6.922;2022-12-29T06:52:38;7.03;;;1.00;;
53253;SDS011;39148;53.332;6.922;2022-12-29T06:55:04;7.30;;;1.10;;
53253;SDS011;39148;53.332;6.922;2022-12-29T06:57:30;5.90;;;0.85;;
53253;SDS011;39148;53.332;6.922;2022-12-29T06:59:55;10.38;;;1.35;;
53253;SDS011;39148;53.332;6.922;2022-12-29T07:02:21;8.48;;;1.60;;
53253;SDS011;39148;53.332;6.922;2022-12-29T07:04:50;10.30;;;1.08;;
53253;SDS011;39148;53.332;6.922;2022-12-29T07:07:17;9.32;;;1.38;;
53253;SDS011;39148;53.332;6.922;2022-12-29T07:09:43;9.15;;;1.33;;
53253;SDS011;39148;53.332;6.922;2022-12-29T07:12:09;8.10;;;1.52;;
53253;SDS011;39148;53.332;6.922;2022-12-29T07:14:34;5.53;;;0.93;;
53253;SDS011;39148;53.332;6.922;2022-12-29T07:17:01;7.63;;;1.10;;
53253;SDS011;39148;53.332;6.922;2022-12-29T07:19:30;6.43;;;0.95;;
53253;SDS011;39148;53.332;6.922;2022-12-29T07:21:56;8.68;;;1.27;;
53253;SDS011;39148;53.332;6.922;2022-12-29T07:24:22;8.48;;;1.48;;
53253;SDS011;39148;53.332;6.922;2022-12-29T07:26:50;6.60;;;0.80;;
53253;SDS011;39148;53.332;6.922;2022-12-29T07:29:16;10.43;;;1.27;;
53253;SDS011;39148;53.332;6.922;2022-12-29T07:31:42;9.20;;;1.20;;
53253;SDS011;39148;53.332;6.922;2022-12-29T07:34:08;8.15;;;1.30;;
53253;SDS011;39148;53.332;6.922;2022-12-29T07:36:34;7.28;;;1.23;;
53253;SDS011;39148;53.332;6.922;2022-12-29T07:39:00;9.50;;;1.50;;
53253;SDS011;39148;53.332;6.922;2022-12-29T07:41:26;8.15;;;1.20;;
53253;SDS011;39148;53.332;6.922;2022-12-29T07:43:52;9.43;;;1.45;;
53253;SDS011;39148;53.332;6.922;2022-12-29T07:46:18;8.75;;;1.40;;
53253;SDS011;39148;53.332;6.922;2022-12-29T07:48:43;12.85;;;1.90;;
53253;SDS011;39148;53.332;6.922;2022-12-29T07:51:09;7.45;;;1.20;;
53253;SDS011;39148;53.332;6.922;2022-12-29T07:53:35;8.70;;;1.42;;
53253;SDS011;39148;53.332;6.922;2022-12-29T07:56:01;9.23;;;1.40;;
53253;SDS011;39148;53.332;6.922;2022-12-29T07:58:27;7.57;;;1.30;;
53253;SDS011;39148;53.332;6.922;2022-12-29T08:00:53;7.65;;;1.23;;
53253;SDS011;39148;53.332;6.922;2022-12-29T08:03:19;7.50;;;1.50;;
53253;SDS011;39148;53.332;6.922;2022-12-29T08:05:45;10.57;;;1.40;;
53253;SDS011;39148;53.332;6.922;2022-12-29T08:08:11;9.15;;;1.50;;
53253;SDS011;39148;53.332;6.922;2022-12-29T08:10:37;10.13;;;1.60;;
53253;SDS011;39148;53.332;6.922;2022-12-29T08:13:03;7.35;;;1.20;;
53253;SDS011;39148;53.332;6.922;2022-12-29T08:15:29;9.43;;;1.40;;
53253;SDS011;39148;53.332;6.922;2022-12-29T08:17:54;8.60;;;1.38;;
53253;SDS011;39148;53.332;6.922;2022-12-29T08:20:20;9.77;;;1.50;;
53253;SDS011;39148;53.332;6.922;2022-12-29T08:22:46;10.88;;;1.70;;
53253;SDS011;39148;53.332;6.922;2022-12-29T08:25:12;8.57;;;1.50;;
53253;SDS011;39148;53.332;6.922;2022-12-29T08:27:37;10.95;;;1.60;;
53253;SDS011;39148;53.332;6.922;2022-12-29T08:30:04;12.45;;;1.60;;
53253;SDS011;39148;53.332;6.922;2022-12-29T08:32:30;7.13;;;1.35;;
53253;SDS011;39148;53.332;6.922;2022-12-29T08:34:56;7.38;;;1.67;;
53253;SDS011;39148;53.332;6.922;2022-12-29T08:37:21;7.60;;;1.40;;
53253;SDS011;39148;53.332;6.922;2022-12-29T08:39:47;11.82;;;1.80;;
53253;SDS011;39148;53.332;6.922;2022-12-29T08:42:13;12.48;;;2.20;;
53253;SDS011;39148;53.332;6.922;2022-12-29T08:44:39;11.48;;;1.70;;
53253;SDS011;39148;53.332;6.922;2022-12-29T08:47:05;10.05;;;1.58;;
53253;SDS011;39148;53.332;6.922;2022-12-29T08:49:31;9.75;;;1.67;;
53253;SDS011;39148;53.332;6.922;2022-12-29T08:51:58;7.80;;;1.42;;
53253;SDS011;39148;53.332;6.922;2022-12-29T08:54:24;8.05;;;1.50;;
53253;SDS011;39148;53.332;6.922;2022-12-29T08:56:50;8.10;;;1.63;;
53253;SDS011;39148;53.332;6.922;2022-12-29T08:59:16;13.13;;;1.80;;
53253;SDS011;39148;53.332;6.922;2022-12-29T09:01:42;11.77;;;1.50;;
53253;SDS011;39148;53.332;6.922;2022-12-29T09:04:08;9.23;;;1.48;;
53253;SDS011;39148;53.332;6.922;2022-12-29T09:06:34;9.10;;;1.50;;
53253;SDS011;39148;53.332;6.922;2022-12-29T09:09:00;9.38;;;1.52;;
53253;SDS011;39148;53.332;6.922;2022-12-29T09:11:26;7.47;;;1.42;;
53253;SDS011;39148;53.332;6.922;2022-12-29T09:13:52;10.80;;;1.95;;
53253;SDS011;39148;53.332;6.922;2022-12-29T09:16:19;7.43;;;1.50;;
53253;SDS011;39148;53.332;6.922;2022-12-29T09:18:47;14.40;;;2.22;;
53253;SDS011;39148;53.332;6.922;2022-12-29T09:21:13;13.18;;;2.00;;
53253;SDS011;39148;53.332;6.922;2022-12-29T09:23:39;10.38;;;2.10;;
53253;SDS011;39148;53.332;6.922;2022-12-29T09:26:05;9.02;;;1.63;;
53253;SDS011;39148;53.332;6.922;2022-12-29T09:28:32;11.25;;;1.60;;
53253;SDS011;39148;53.332;6.922;2022-12-29T09:30:58;8.77;;;1.52;;
53253;SDS011;39148;53.332;6.922;2022-12-29T09:33:24;11.18;;;1.88;;
53253;SDS011;39148;53.332;6.922;2022-12-29T09:35:54;14.25;;;1.92;;
53253;SDS011;39148;53.332;6.922;2022-12-29T09:38:22;12.05;;;1.92;;
53253;SDS011;39148;53.332;6.922;2022-12-29T09:41:11;13.27;;;2.00;;
53253;SDS011;39148;53.332;6.922;2022-12-29T09:43:44;12.05;;;1.92;;
53253;SDS011;39148;53.332;6.922;2022-12-29T09:46:37;10.00;;;1.60;;
53253;SDS011;39148;53.332;6.922;2022-12-29T09:51:32;13.52;;;2.20;;
53253;SDS011;39148;53.332;6.922;2022-12-29T09:54:10;8.75;;;1.55;;
53253;SDS011;39148;53.332;6.922;2022-12-29T09:56:56;10.32;;;1.80;;
53253;SDS011;39148;53.332;6.922;2022-12-29T09:59:27;11.30;;;1.75;;
53253;SDS011;39148;53.332;6.922;2022-12-29T10:04:41;10.80;;;2.22;;
53253;SDS011;39148;53.332;6.922;2022-12-29T10:10:14;12.55;;;1.92;;
53253;SDS011;39148;53.332;6.922;2022-12-29T10:12:51;9.93;;;1.90;;
53253;SDS011;39148;53.332;6.922;2022-12-29T10:15:40;8.57;;;1.70;;
53253;SDS011;39148;53.332;6.922;2022-12-29T10:26:05;9.23;;;1.95;;
53253;SDS011;39148;53.332;6.922;2022-12-29T10:28:38;8.75;;;1.63;;
53253;SDS011;39148;53.332;6.922;2022-12-29T10:31:31;11.75;;;2.08;;
53253;SDS011;39148;53.332;6.922;2022-12-29T10:34:03;12.48;;;1.80;;
53253;SDS011;39148;53.332;6.922;2022-12-29T10:36:39;8.60;;;1.55;;
53253;SDS011;39148;53.332;6.922;2022-12-29T10:39:21;8.45;;;1.38;;
53253;SDS011;39148;53.332;6.922;2022-12-29T10:44:37;9.70;;;1.42;;
53253;SDS011;39148;53.332;6.922;2022-12-29T10:47:04;9.60;;;1.75;;
53253;SDS011;39148;53.332;6.922;2022-12-29T10:49:33;9.80;;;1.17;;
53253;SDS011;39148;53.332;6.922;2022-12-29T10:52:04;8.55;;;1.42;;
53253;SDS011;39148;53.332;6.922;2022-12-29T10:57:31;7.80;;;1.17;;
53253;SDS011;39148;53.332;6.922;2022-12-29T11:00:00;9.15;;;1.40;;
53253;SDS011;39148;53.332;6.922;2022-12-29T11:05:19;7.53;;;1.23;;
53253;SDS011;39148;53.332;6.922;2022-12-29T11:07:53;7.35;;;1.05;;
53253;SDS011;39148;53.332;6.922;2022-12-29T11:13:02;8.73;;;1.38;;
53253;SDS011;39148;53.332;6.922;2022-12-29T11:15:40;7.78;;;1.65;;
53253;SDS011;39148;53.332;6.922;2022-12-29T11:18:24;10.60;;;1.35;;
53253;SDS011;39148;53.332;6.922;2022-12-29T11:20:55;6.10;;;1.40;;
53253;SDS011;39148;53.332;6.922;2022-12-29T11:28:30;8.60;;;1.30;;
53253;SDS011;39148;53.332;6.922;2022-12-29T11:31:02;11.93;;;1.70;;
53253;SDS011;39148;53.332;6.922;2022-12-29T11:33:28;7.40;;;1.40;;
53253;SDS011;39148;53.332;6.922;2022-12-29T11:35:58;10.15;;;1.50;;
53253;SDS011;39148;53.332;6.922;2022-12-29T11:38:39;8.93;;;1.30;;
53253;SDS011;39148;53.332;6.922;2022-12-29T11:41:10;10.05;;;1.40;;
53253;SDS011;39148;53.332;6.922;2022-12-29T11:46:06;9.27;;;1.92;;
53253;SDS011;39148;53.332;6.922;2022-12-29T11:48:39;11.40;;;1.73;;
53253;SDS011;39148;53.332;6.922;2022-12-29T11:51:06;11.68;;;1.52;;
53253;SDS011;39148;53.332;6.922;2022-12-29T11:53:41;7.18;;;1.42;;
53253;SDS011;39148;53.332;6.922;2022-12-29T11:56:16;13.30;;;1.90;;
53253;SDS011;39148;53.332;6.922;2022-12-29T11:58:45;14.02;;;2.38;;
53253;SDS011;39148;53.332;6.922;2022-12-29T12:04:03;9.80;;;1.70;;
53253;SDS011;39148;53.332;6.922;2022-12-29T12:06:29;9.63;;;1.67;;
53253;SDS011;39148;53.332;6.922;2022-12-29T12:09:02;14.15;;;2.22;;
53253;SDS011;39148;53.332;6.922;2022-12-29T12:11:44;12.10;;;2.28;;
53253;SDS011;39148;53.332;6.922;2022-12-29T12:16:41;11.93;;;2.30;;
53253;SDS011;39148;53.332;6.922;2022-12-29T12:19:26;11.60;;;1.80;;
53253;SDS011;39148;53.332;6.922;2022-12-29T12:22:08;11.00;;;2.08;;
53253;SDS011;39148;53.332;6.922;2022-12-29T12:24:47;13.52;;;2.47;;
53253;SDS011;39148;53.332;6.922;2022-12-29T12:30:09;13.40;;;2.55;;
53253;SDS011;39148;53.332;6.922;2022-12-29T12:35:10;10.65;;;2.10;;
53253;SDS011;39148;53.332;6.922;2022-12-29T12:50:52;12.40;;;2.20;;
53253;SDS011;39148;53.332;6.922;2022-12-29T13:07:40;10.07;;;1.70;;
53253;SDS011;39148;53.332;6.922;2022-12-29T13:31:17;6.90;;;1.58;;
53253;SDS011;39148;53.332;6.922;2022-12-29T13:36:48;9.05;;;2.05;;
53253;SDS011;39148;53.332;6.922;2022-12-29T13:39:19;8.85;;;1.23;;
53253;SDS011;39148;53.332;6.922;2022-12-29T13:41:53;11.20;;;1.60;;
53253;SDS011;39148;53.332;6.922;2022-12-29T13:47:02;10.27;;;1.50;;
53253;SDS011;39148;53.332;6.922;2022-12-29T13:49:30;11.60;;;2.35;;
53253;SDS011;39148;53.332;6.922;2022-12-29T13:51:59;7.93;;;1.40;;
53253;SDS011;39148;53.332;6.922;2022-12-29T13:57:21;8.05;;;1.48;;
53253;SDS011;39148;53.332;6.922;2022-12-29T14:00:12;8.13;;;0.93;;
53253;SDS011;39148;53.332;6.922;2022-12-29T14:07:45;7.72;;;1.23;;
53253;SDS011;39148;53.332;6.922;2022-12-29T14:15:59;9.52;;;1.38;;
53253;SDS011;39148;53.332;6.922;2022-12-29T14:18:25;9.07;;;1.20;;
53253;SDS011;39148;53.332;6.922;2022-12-29T14:20:57;10.18;;;1.77;;
53253;SDS011;39148;53.332;6.922;2022-12-29T14:31:03;6.97;;;1.15;;
53253;SDS011;39148;53.332;6.922;2022-12-29T14:36:34;6.95;;;0.95;;
53253;SDS011;39148;53.332;6.922;2022-12-29T14:39:03;7.85;;;1.23;;
53253;SDS011;39148;53.332;6.922;2022-12-29T14:41:48;6.45;;;1.20;;
53253;SDS011;39148;53.332;6.922;2022-12-29T14:44:25;6.20;;;1.00;;
53253;SDS011;39148;53.332;6.922;2022-12-29T14:49:23;11.43;;;1.70;;
53253;SDS011;39148;53.332;6.922;2022-12-29T14:51:52;9.23;;;1.33;;
53253;SDS011;39148;53.332;6.922;2022-12-29T14:57:04;8.98;;;1.33;;
53253;SDS011;39148;53.332;6.922;2022-12-29T14:59:33;8.27;;;1.40;;
53253;SDS011;39148;53.332;6.922;2022-12-29T15:02:04;9.52;;;1.15;;
53253;SDS011;39148;53.332;6.922;2022-12-29T15:04:45;8.70;;;1.52;;
53253;SDS011;39148;53.332;6.922;2022-12-29T15:07:12;7.47;;;1.50;;
53253;SDS011;39148;53.332;6.922;2022-12-29T15:09:41;7.78;;;1.33;;
53253;SDS011;39148;53.332;6.922;2022-12-29T15:12:18;9.10;;;1.23;;
53253;SDS011;39148;53.332;6.922;2022-12-29T15:15:24;6.65;;;0.98;;
53253;SDS011;39148;53.332;6.922;2022-12-29T15:17:51;6.60;;;1.15;;
53253;SDS011;39148;53.332;6.922;2022-12-29T15:22:48;9.40;;;1.60;;
53253;SDS011;39148;53.332;6.922;2022-12-29T15:25:20;7.25;;;1.02;;
53253;SDS011;39148;53.332;6.922;2022-12-29T15:27:53;6.78;;;1.30;;
53253;SDS011;39148;53.332;6.922;2022-12-29T15:30:22;11.38;;;2.05;;
53253;SDS011;39148;53.332;6.922;2022-12-29T15:32:48;8.60;;;1.55;;
53253;SDS011;39148;53.332;6.922;2022-12-29T15:35:21;8.63;;;1.60;;
53253;SDS011;39148;53.332;6.922;2022-12-29T15:37:47;7.75;;;1.55;;
53253;SDS011;39148;53.332;6.922;2022-12-29T15:40:32;7.78;;;1.40;;
53253;SDS011;39148;53.332;6.922;2022-12-29T15:45:41;8.98;;;1.30;;
53253;SDS011;39148;53.332;6.922;2022-12-29T15:48:13;9.73;;;1.50;;
53253;SDS011;39148;53.332;6.922;2022-12-29T15:50:41;10.27;;;1.55;;
53253;SDS011;39148;53.332;6.922;2022-12-29T15:53:12;9.25;;;1.75;;
53253;SDS011;39148;53.332;6.922;2022-12-29T15:55:44;6.88;;;1.58;;
53253;SDS011;39148;53.332;6.922;2022-12-29T15:58:20;12.55;;;1.48;;
53253;SDS011;39148;53.332;6.922;2022-12-29T16:00:49;11.00;;;1.80;;
53253;SDS011;39148;53.332;6.922;2022-12-29T16:03:20;10.23;;;1.77;;
53253;SDS011;39148;53.332;6.922;2022-12-29T16:06:05;11.23;;;1.50;;
53253;SDS011;39148;53.332;6.922;2022-12-29T16:08:55;9.15;;;1.77;;
53253;SDS011;39148;53.332;6.922;2022-12-29T16:11:35;10.73;;;1.60;;
53253;SDS011;39148;53.332;6.922;2022-12-29T16:14:27;10.13;;;1.70;;
53253;SDS011;39148;53.332;6.922;2022-12-29T16:17:01;11.50;;;2.05;;
53253;SDS011;39148;53.332;6.922;2022-12-29T16:19:37;12.15;;;1.80;;
53253;SDS011;39148;53.332;6.922;2022-12-29T16:22:12;12.85;;;1.88;;
53253;SDS011;39148;53.332;6.922;2022-12-29T16:24:43;8.07;;;1.55;;
53253;SDS011;39148;53.332;6.922;2022-12-29T16:27:20;8.40;;;1.42;;
53253;SDS011;39148;53.332;6.922;2022-12-29T16:29:53;10.40;;;2.28;;
53253;SDS011;39148;53.332;6.922;2022-12-29T16:32:29;7.72;;;1.98;;
53253;SDS011;39148;53.332;6.922;2022-12-29T16:37:38;7.10;;;1.63;;
53253;SDS011;39148;53.332;6.922;2022-12-29T16:42:46;9.20;;;1.70;;
53253;SDS011;39148;53.332;6.922;2022-12-29T16:47:47;10.30;;;1.77;;
53253;SDS011;39148;53.332;6.922;2022-12-29T16:50:37;9.15;;;1.60;;
53253;SDS011;39148;53.332;6.922;2022-12-29T16:53:05;7.32;;;1.25;;
53253;SDS011;39148;53.332;6.922;2022-12-29T16:55:45;9.50;;;1.58;;
53253;SDS011;39148;53.332;6.922;2022-12-29T16:58:16;7.05;;;1.33;;
53253;SDS011;39148;53.332;6.922;2022-12-29T17:00:45;9.93;;;1.30;;
53253;SDS011;39148;53.332;6.922;2022-12-29T17:03:12;10.60;;;1.77;;
53253;SDS011;39148;53.332;6.922;2022-12-29T17:05:39;8.32;;;1.70;;
53253;SDS011;39148;53.332;6.922;2022-12-29T17:08:15;5.88;;;1.30;;
53253;SDS011;39148;53.332;6.922;2022-12-29T17:10:48;8.70;;;1.25;;
53253;SDS011;39148;53.332;6.922;2022-12-29T17:13:34;7.15;;;1.33;;
53253;SDS011;39148;53.332;6.922;2022-12-29T17:16:01;7.55;;;1.13;;
53253;SDS011;39148;53.332;6.922;2022-12-29T17:18:27;8.20;;;1.30;;
53253;SDS011;39148;53.332;6.922;2022-12-29T17:20:53;6.70;;;1.20;;
53253;SDS011;39148;53.332;6.922;2022-12-29T17:23:19;6.10;;;1.05;;
53253;SDS011;39148;53.332;6.922;2022-12-29T17:25:45;7.95;;;1.58;;
53253;SDS011;39148;53.332;6.922;2022-12-29T17:28:24;6.95;;;1.80;;
53253;SDS011;39148;53.332;6.922;2022-12-29T17:30:53;3.58;;;0.75;;
53253;SDS011;39148;53.332;6.922;2022-12-29T17:33:24;5.00;;;1.30;;
53253;SDS011;39148;53.332;6.922;2022-12-29T17:35:50;6.28;;;1.17;;
53253;SDS011;39148;53.332;6.922;2022-12-29T17:38:20;6.38;;;1.67;;
53253;SDS011;39148;53.332;6.922;2022-12-29T17:40:53;5.65;;;0.90;;
53253;SDS011;39148;53.332;6.922;2022-12-29T17:43:19;5.22;;;1.00;;
53253;SDS011;39148;53.332;6.922;2022-12-29T17:45:46;5.88;;;1.00;;
53253;SDS011;39148;53.332;6.922;2022-12-29T17:50:43;3.40;;;0.90;;
53253;SDS011;39148;53.332;6.922;2022-12-29T17:53:11;6.45;;;1.08;;
53253;SDS011;39148;53.332;6.922;2022-12-29T17:55:41;5.18;;;0.88;;
53253;SDS011;39148;53.332;6.922;2022-12-29T17:58:15;4.38;;;0.80;;
53253;SDS011;39148;53.332;6.922;2022-12-29T18:00:41;3.75;;;0.85;;
53253;SDS011;39148;53.332;6.922;2022-12-29T18:03:07;5.38;;;1.08;;
53253;SDS011;39148;53.332;6.922;2022-12-29T18:05:47;5.20;;;0.90;;